sensor_id;sensor_type;location;lat;lon;timestamp;P1;durP1;ratioP1;P2;durP2;ratioP2
47455;SDS011;33202;48.512;-2.780;2023-05-10T00:00:30;26.85;;;4.18;;
47455;SDS011;33202;48.512;-2.780;2023-05-10T00:02:56;18.15;;;3.97;;
47455;SDS011;33202;48.512;-2.780;2023-05-10T00:05:22;16.25;;;3.95;;
47455;SDS011;33202;48.512;-2.780;2023-05-10T00:07:48;17.90;;;3.08;;
47455;SDS011;33202;48.512;-2.780;2023-05-10T00:10:14;25.13;;;4.20;;
47455;SDS011;33202;48.512;-2.780;2023-05-10T00:12:40;21.23;;;3.88;;
47455;SDS011;33202;48.512;-2.780;2023-05-10T00:15:06;24.25;;;3.83;;
47455;SDS011;33202;48.512;-2.780;2023-05-10T00:17:33;22.57;;;5.10;;
47455;SDS011;33202;48.512;-2.780;2023-05-10T00:19:59;18.23;;;3.35;;
47455;SDS011;33202;48.512;-2.780;2023-05-10T00:22:25;17.38;;;3.53;;
47455;SDS011;33202;48.512;-2.780;2023-05-10T00:24:51;18.13;;;3.72;;
47455;SDS011;33202;48.512;-2.780;2023-05-10T00:27:17;26.85;;;4.55;;
47455;SDS011;33202;48.512;-2.780;2023-05-10T00:29:43;21.15;;;3.75;;
47455;SDS011;33202;48.512;-2.780;2023-05-10T00:32:09;20.20;;;3.80;;
47455;SDS011;33202;48.512;-2.780;2023-05-10T00:34:35;16.10;;;3.70;;
47455;SDS011;33202;48.512;-2.780;2023-05-10T00:37:01;21.42;;;4.28;;
47455;SDS011;33202;48.512;-2.780;2023-05-10T00:39:27;19.20;;;3.42;;
47455;SDS011;33202;48.512;-2.780;2023-05-10T00:41:53;18.30;;;3.67;;
47455;SDS011;33202;48.512;-2.780;2023-05-10T00:44:19;24.75;;;4.72;;
47455;SDS011;33202;48.512;-2.780;2023-05-10T00:46:46;22.45;;;3.55;;
47455;SDS011;33202;48.512;-2.780;2023-05-10T00:49:12;23.27;;;4.73;;
47455;SDS011;33202;48.512;-2.780;2023-05-10T00:51:38;21.77;;;4.10;;
47455;SDS011;33202;48.512;-2.780;2023-05-10T00:54:04;18.17;;;4.07;;
47455;SDS011;33202;48.512;-2.780;2023-05-10T00:56:31;21.73;;;3.78;;
47455;SDS011;33202;48.512;-2.780;2023-05-10T00:58:57;21.75;;;3.42;;
47455;SDS011;33202;48.512;-2.780;2023-05-10T01:01:23;23.42;;;3.35;;
47455;SDS011;33202;48.512;-2.780;2023-05-10T01:03:50;23.17;;;3.90;;
47455;SDS011;33202;48.512;-2.780;2023-05-10T01:06:16;21.98;;;4.15;;
47455;SDS011;33202;48.512;-2.780;2023-05-10T01:08:42;18.33;;;4.13;;
47455;SDS011;33202;48.512;-2.780;2023-05-10T01:11:08;17.52;;;4.22;;
47455;SDS011;33202;48.512;-2.780;2023-05-10T01:13:38;19.08;;;3.65;;
47455;SDS011;33202;48.512;-2.780;2023-05-10T01:16:04;22.05;;;4.55;;
47455;SDS011;33202;48.512;-2.780;2023-05-10T01:18:33;18.85;;;3.50;;
47455;SDS011;33202;48.512;-2.780;2023-05-10T01:21:04;20.85;;;4.40;;
47455;SDS011;33202;48.512;-2.780;2023-05-10T01:23:40;21.00;;;3.90;;
47455;SDS011;33202;48.512;-2.780;2023-05-10T01:33:56;27.95;;;4.05;;
47455;SDS011;33202;48.512;-2.780;2023-05-10T01:36:29;25.35;;;4.32;;
47455;SDS011;33202;48.512;-2.780;2023-05-10T01:38:58;19.25;;;3.70;;
47455;SDS011;33202;48.512;-2.780;2023-05-10T01:41:36;15.27;;;3.42;;
47455;SDS011;33202;48.512;-2.780;2023-05-10T01:46:49;20.35;;;3.28;;
47455;SDS011;33202;48.512;-2.780;2023-05-10T01:49:23;16.50;;;3.55;;
47455;SDS011;33202;48.512;-2.780;2023-05-10T01:51:50;19.20;;;4.40;;
47455;SDS011;33202;48.512;-2.780;2023-05-10T01:54:19;31.33;;;4.18;;
47455;SDS011;33202;48.512;-2.780;2023-05-10T01:56:47;18.58;;;3.03;;
47455;SDS011;33202;48.512;-2.780;2023-05-10T01:59:15;23.65;;;4.93;;
47455;SDS011;33202;48.512;-2.780;2023-05-10T02:01:42;23.33;;;4.82;;
47455;SDS011;33202;48.512;-2.780;2023-05-10T02:04:08;19.88;;;4.05;;
47455;SDS011;33202;48.512;-2.780;2023-05-10T02:06:35;17.45;;;3.50;;
47455;SDS011;33202;48.512;-2.780;2023-05-10T02:09:02;21.42;;;4.18;;
47455;SDS011;33202;48.512;-2.780;2023-05-10T02:11:28;23.42;;;3.50;;
47455;SDS011;33202;48.512;-2.780;2023-05-10T02:13:55;19.15;;;3.15;;
47455;SDS011;33202;48.512;-2.780;2023-05-10T02:16:23;26.05;;;4.82;;
47455;SDS011;33202;48.512;-2.780;2023-05-10T02:21:16;18.45;;;2.97;;
47455;SDS011;33202;48.512;-2.780;2023-05-10T02:23:43;19.92;;;3.85;;
47455;SDS011;33202;48.512;-2.780;2023-05-10T02:26:09;16.90;;;3.88;;
47455;SDS011;33202;48.512;-2.780;2023-05-10T02:28:36;17.83;;;4.03;;
47455;SDS011;33202;48.512;-2.780;2023-05-10T02:31:03;16.50;;;3.70;;
47455;SDS011;33202;48.512;-2.780;2023-05-10T02:33:30;16.35;;;3.72;;
47455;SDS011;33202;48.512;-2.780;2023-05-10T02:35:57;17.43;;;3.17;;
47455;SDS011;33202;48.512;-2.780;2023-05-10T02:38:24;22.87;;;4.23;;
47455;SDS011;33202;48.512;-2.780;2023-05-10T02:40:50;15.18;;;2.97;;
47455;SDS011;33202;48.512;-2.780;2023-05-10T02:43:18;22.08;;;3.28;;
47455;SDS011;33202;48.512;-2.780;2023-05-10T02:45:44;17.23;;;3.38;;
47455;SDS011;33202;48.512;-2.780;2023-05-10T02:48:11;14.43;;;3.47;;
47455;SDS011;33202;48.512;-2.780;2023-05-10T02:50:38;17.65;;;2.90;;
47455;SDS011;33202;48.512;-2.780;2023-05-10T02:53:15;19.15;;;4.30;;
47455;SDS011;33202;48.512;-2.780;2023-05-10T02:55:42;21.67;;;4.07;;
47455;SDS011;33202;48.512;-2.780;2023-05-10T02:58:12;16.05;;;3.45;;
47455;SDS011;33202;48.512;-2.780;2023-05-10T03:00:38;18.25;;;3.67;;
47455;SDS011;33202;48.512;-2.780;2023-05-10T03:03:04;16.15;;;3.67;;
47455;SDS011;33202;48.512;-2.780;2023-05-10T03:05:31;19.42;;;2.80;;
47455;SDS011;33202;48.512;-2.780;2023-05-10T03:07:58;20.75;;;3.47;;
47455;SDS011;33202;48.512;-2.780;2023-05-10T03:10:28;17.33;;;3.28;;
47455;SDS011;33202;48.512;-2.780;2023-05-10T03:18:07;17.35;;;2.92;;
47455;SDS011;33202;48.512;-2.780;2023-05-10T03:20:38;15.95;;;2.95;;
47455;SDS011;33202;48.512;-2.780;2023-05-10T03:23:07;22.85;;;4.00;;
47455;SDS011;33202;48.512;-2.780;2023-05-10T03:25:35;24.38;;;3.63;;
47455;SDS011;33202;48.512;-2.780;2023-05-10T03:28:01;12.88;;;2.78;;
47455;SDS011;33202;48.512;-2.780;2023-05-10T03:30:29;20.48;;;4.25;;
47455;SDS011;33202;48.512;-2.780;2023-05-10T03:32:56;21.20;;;3.93;;
47455;SDS011;33202;48.512;-2.780;2023-05-10T03:35:22;16.30;;;3.15;;
47455;SDS011;33202;48.512;-2.780;2023-05-10T03:37:49;18.20;;;4.03;;
47455;SDS011;33202;48.512;-2.780;2023-05-10T03:40:15;20.42;;;3.75;;
47455;SDS011;33202;48.512;-2.780;2023-05-10T03:42:41;18.37;;;3.37;;
47455;SDS011;33202;48.512;-2.780;2023-05-10T03:45:07;20.02;;;3.45;;
47455;SDS011;33202;48.512;-2.780;2023-05-10T03:47:34;20.15;;;3.95;;
47455;SDS011;33202;48.512;-2.780;2023-05-10T03:50:00;25.15;;;4.07;;
47455;SDS011;33202;48.512;-2.780;2023-05-10T03:52:27;17.23;;;3.67;;
47455;SDS011;33202;48.512;-2.780;2023-05-10T03:54:53;12.35;;;2.70;;
47455;SDS011;33202;48.512;-2.780;2023-05-10T03:57:19;14.77;;;3.28;;
47455;SDS011;33202;48.512;-2.780;2023-05-10T03:59:45;17.08;;;3.72;;
47455;SDS011;33202;48.512;-2.780;2023-05-10T04:02:11;17.27;;;3.00;;
47455;SDS011;33202;48.512;-2.780;2023-05-10T04:04:37;16.92;;;3.25;;
47455;SDS011;33202;48.512;-2.780;2023-05-10T04:07:03;15.95;;;3.95;;
47455;SDS011;33202;48.512;-2.780;2023-05-10T04:09:29;12.88;;;2.67;;
47455;SDS011;33202;48.512;-2.780;2023-05-10T04:11:55;14.20;;;2.80;;
47455;SDS011;33202;48.512;-2.780;2023-05-10T04:14:21;24.95;;;4.32;;
47455;SDS011;33202;48.512;-2.780;2023-05-10T04:16:47;17.23;;;4.05;;
47455;SDS011;33202;48.512;-2.780;2023-05-10T04:19:13;15.13;;;3.10;;
47455;SDS011;33202;48.512;-2.780;2023-05-10T04:21:39;16.65;;;3.13;;
47455;SDS011;33202;48.512;-2.780;2023-05-10T04:24:05;18.08;;;3.10;;
47455;SDS011;33202;48.512;-2.780;2023-05-10T04:26:31;18.88;;;3.78;;
47455;SDS011;33202;48.512;-2.780;2023-05-10T04:28:57;13.80;;;2.88;;
47455;SDS011;33202;48.512;-2.780;2023-05-10T04:31:23;17.20;;;3.53;;
47455;SDS011;33202;48.512;-2.780;2023-05-10T04:33:49;12.57;;;2.95;;
47455;SDS011;33202;48.512;-2.780;2023-05-10T04:36:15;17.63;;;3.42;;
47455;SDS011;33202;48.512;-2.780;2023-05-10T04:38:41;19.63;;;3.15;;
47455;SDS011;33202;48.512;-2.780;2023-05-10T04:41:08;16.38;;;3.45;;
47455;SDS011;33202;48.512;-2.780;2023-05-10T04:43:34;18.25;;;3.60;;
47455;SDS011;33202;48.512;-2.780;2023-05-10T04:46:01;13.20;;;2.63;;
47455;SDS011;33202;48.512;-2.780;2023-05-10T04:48:27;13.57;;;3.28;;
47455;SDS011;33202;48.512;-2.780;2023-05-10T04:50:53;12.90;;;3.38;;
47455;SDS011;33202;48.512;-2.780;2023-05-10T04:53:19;11.40;;;2.33;;
47455;SDS011;33202;48.512;-2.780;2023-05-10T04:55:45;12.73;;;2.50;;
47455;SDS011;33202;48.512;-2.780;2023-05-10T04:58:11;12.67;;;2.90;;
47455;SDS011;33202;48.512;-2.780;2023-05-10T05:00:37;14.73;;;2.85;;
47455;SDS011;33202;48.512;-2.780;2023-05-10T05:03:03;14.82;;;2.90;;
47455;SDS011;33202;48.512;-2.780;2023-05-10T05:05:30;15.80;;;3.72;;
47455;SDS011;33202;48.512;-2.780;2023-05-10T05:07:56;10.93;;;2.80;;
47455;SDS011;33202;48.512;-2.780;2023-05-10T05:10:22;13.55;;;3.33;;
47455;SDS011;33202;48.512;-2.780;2023-05-10T05:12:48;13.75;;;2.80;;
47455;SDS011;33202;48.512;-2.780;2023-05-10T05:15:14;17.20;;;3.38;;
47455;SDS011;33202;48.512;-2.780;2023-05-10T05:20:07;20.10;;;3.38;;
47455;SDS011;33202;48.512;-2.780;2023-05-10T05:22:33;16.10;;;3.67;;
47455;SDS011;33202;48.512;-2.780;2023-05-10T05:24:59;17.98;;;3.03;;
47455;SDS011;33202;48.512;-2.780;2023-05-10T05:27:27;15.18;;;3.35;;
47455;SDS011;33202;48.512;-2.780;2023-05-10T05:29:53;18.63;;;3.40;;
47455;SDS011;33202;48.512;-2.780;2023-05-10T05:32:19;22.67;;;3.58;;
47455;SDS011;33202;48.512;-2.780;2023-05-10T05:34:45;16.02;;;3.05;;
47455;SDS011;33202;48.512;-2.780;2023-05-10T05:37:12;20.75;;;3.20;;
47455;SDS011;33202;48.512;-2.780;2023-05-10T05:39:39;19.98;;;3.53;;
47455;SDS011;33202;48.512;-2.780;2023-05-10T05:42:05;18.80;;;3.72;;
47455;SDS011;33202;48.512;-2.780;2023-05-10T05:44:31;15.07;;;3.30;;
47455;SDS011;33202;48.512;-2.780;2023-05-10T05:46:57;19.23;;;3.10;;
47455;SDS011;33202;48.512;-2.780;2023-05-10T05:49:23;17.52;;;3.08;;
47455;SDS011;33202;48.512;-2.780;2023-05-10T05:51:49;17.42;;;3.28;;
47455;SDS011;33202;48.512;-2.780;2023-05-10T05:54:15;13.23;;;2.97;;
47455;SDS011;33202;48.512;-2.780;2023-05-10T05:56:41;12.88;;;2.97;;
47455;SDS011;33202;48.512;-2.780;2023-05-10T05:59:07;16.45;;;5.80;;
47455;SDS011;33202;48.512;-2.780;2023-05-10T06:01:33;15.35;;;3.08;;
47455;SDS011;33202;48.512;-2.780;2023-05-10T06:03:59;11.05;;;3.15;;
47455;SDS011;33202;48.512;-2.780;2023-05-10T06:06:25;12.93;;;3.03;;
47455;SDS011;33202;48.512;-2.780;2023-05-10T06:08:51;11.77;;;2.90;;
47455;SDS011;33202;48.512;-2.780;2023-05-10T06:11:17;12.60;;;2.88;;
47455;SDS011;33202;48.512;-2.780;2023-05-10T06:13:43;10.88;;;2.70;;
47455;SDS011;33202;48.512;-2.780;2023-05-10T06:16:10;16.48;;;3.40;;
47455;SDS011;33202;48.512;-2.780;2023-05-10T06:18:36;14.27;;;2.95;;
47455;SDS011;33202;48.512;-2.780;2023-05-10T06:21:02;11.68;;;2.63;;
47455;SDS011;33202;48.512;-2.780;2023-05-10T06:23:28;14.70;;;2.65;;
47455;SDS011;33202;48.512;-2.780;2023-05-10T06:25:54;13.23;;;2.53;;
47455;SDS011;33202;48.512;-2.780;2023-05-10T06:28:20;9.57;;;2.22;;
47455;SDS011;33202;48.512;-2.780;2023-05-10T06:30:46;12.18;;;2.55;;
47455;SDS011;33202;48.512;-2.780;2023-05-10T06:33:12;10.90;;;2.55;;
47455;SDS011;33202;48.512;-2.780;2023-05-10T06:35:38;13.00;;;2.72;;
47455;SDS011;33202;48.512;-2.780;2023-05-10T06:38:04;15.50;;;3.13;;
47455;SDS011;33202;48.512;-2.780;2023-05-10T06:40:30;15.18;;;2.90;;
47455;SDS011;33202;48.512;-2.780;2023-05-10T06:42:57;12.95;;;3.05;;
47455;SDS011;33202;48.512;-2.780;2023-05-10T06:45:23;11.80;;;2.78;;
47455;SDS011;33202;48.512;-2.780;2023-05-10T06:47:50;16.42;;;3.83;;
47455;SDS011;33202;48.512;-2.780;2023-05-10T06:50:16;12.80;;;3.00;;
47455;SDS011;33202;48.512;-2.780;2023-05-10T06:52:42;16.88;;;3.88;;
47455;SDS011;33202;48.512;-2.780;2023-05-10T06:55:08;21.08;;;3.08;;
47455;SDS011;33202;48.512;-2.780;2023-05-10T06:57:34;15.25;;;2.70;;
47455;SDS011;33202;48.512;-2.780;2023-05-10T07:00:00;20.98;;;3.58;;
47455;SDS011;33202;48.512;-2.780;2023-05-10T07:02:28;14.85;;;3.05;;
47455;SDS011;33202;48.512;-2.780;2023-05-10T07:04:55;15.00;;;2.75;;
47455;SDS011;33202;48.512;-2.780;2023-05-10T07:07:21;20.27;;;3.55;;
47455;SDS011;33202;48.512;-2.780;2023-05-10T07:09:47;16.88;;;3.15;;
47455;SDS011;33202;48.512;-2.780;2023-05-10T07:12:14;14.32;;;3.30;;
47455;SDS011;33202;48.512;-2.780;2023-05-10T07:14:40;19.05;;;3.45;;
47455;SDS011;33202;48.512;-2.780;2023-05-10T07:17:06;24.95;;;3.47;;
47455;SDS011;33202;48.512;-2.780;2023-05-10T07:19:32;17.38;;;3.63;;
47455;SDS011;33202;48.512;-2.780;2023-05-10T07:21:58;16.27;;;3.17;;
47455;SDS011;33202;48.512;-2.780;2023-05-10T07:24:25;16.10;;;3.08;;
47455;SDS011;33202;48.512;-2.780;2023-05-10T07:26:51;14.43;;;3.22;;
47455;SDS011;33202;48.512;-2.780;2023-05-10T07:29:17;19.55;;;2.85;;
47455;SDS011;33202;48.512;-2.780;2023-05-10T07:31:43;19.48;;;3.40;;
47455;SDS011;33202;48.512;-2.780;2023-05-10T07:34:09;17.73;;;2.92;;
47455;SDS011;33202;48.512;-2.780;2023-05-10T07:36:35;16.45;;;3.40;;
47455;SDS011;33202;48.512;-2.780;2023-05-10T07:39:01;16.00;;;3.15;;
47455;SDS011;33202;48.512;-2.780;2023-05-10T07:41:27;14.43;;;2.90;;
47455;SDS011;33202;48.512;-2.780;2023-05-10T07:43:53;18.85;;;3.60;;
47455;SDS011;33202;48.512;-2.780;2023-05-10T07:46:19;15.35;;;3.00;;
47455;SDS011;33202;48.512;-2.780;2023-05-10T07:48:45;15.48;;;3.72;;
47455;SDS011;33202;48.512;-2.780;2023-05-10T07:51:11;14.65;;;2.65;;
47455;SDS011;33202;48.512;-2.780;2023-05-10T07:53:37;21.40;;;3.83;;
47455;SDS011;33202;48.512;-2.780;2023-05-10T07:56:20;17.25;;;3.45;;
47455;SDS011;33202;48.512;-2.780;2023-05-10T07:58:46;14.30;;;2.92;;
47455;SDS011;33202;48.512;-2.780;2023-05-10T08:01:12;9.93;;;2.05;;
47455;SDS011;33202;48.512;-2.780;2023-05-10T08:03:38;12.52;;;2.47;;
47455;SDS011;33202;48.512;-2.780;2023-05-10T08:06:04;14.50;;;2.50;;
47455;SDS011;33202;48.512;-2.780;2023-05-10T08:08:30;14.32;;;2.83;;
47455;SDS011;33202;48.512;-2.780;2023-05-10T08:10:56;14.23;;;2.53;;
47455;SDS011;33202;48.512;-2.780;2023-05-10T08:13:22;10.63;;;1.80;;
47455;SDS011;33202;48.512;-2.780;2023-05-10T08:15:48;10.68;;;2.47;;
47455;SDS011;33202;48.512;-2.780;2023-05-10T08:18:17;6.57;;;1.60;;
47455;SDS011;33202;48.512;-2.780;2023-05-10T08:20:43;6.70;;;2.00;;
47455;SDS011;33202;48.512;-2.780;2023-05-10T08:23:09;8.93;;;2.08;;
47455;SDS011;33202;48.512;-2.780;2023-05-10T08:25:36;6.97;;;1.88;;
47455;SDS011;33202;48.512;-2.780;2023-05-10T08:28:02;9.55;;;2.30;;
47455;SDS011;33202;48.512;-2.780;2023-05-10T08:30:28;12.30;;;2.67;;
47455;SDS011;33202;48.512;-2.780;2023-05-10T08:32:54;12.43;;;2.10;;
47455;SDS011;33202;48.512;-2.780;2023-05-10T08:35:20;8.73;;;2.30;;
47455;SDS011;33202;48.512;-2.780;2023-05-10T08:37:46;12.65;;;2.72;;
47455;SDS011;33202;48.512;-2.780;2023-05-10T08:40:12;11.65;;;2.22;;
47455;SDS011;33202;48.512;-2.780;2023-05-10T08:42:39;9.93;;;2.25;;
47455;SDS011;33202;48.512;-2.780;2023-05-10T08:45:06;9.68;;;2.05;;
47455;SDS011;33202;48.512;-2.780;2023-05-10T08:47:33;13.23;;;2.15;;
47455;SDS011;33202;48.512;-2.780;2023-05-10T08:50:01;12.13;;;2.63;;
47455;SDS011;33202;48.512;-2.780;2023-05-10T08:52:28;11.57;;;2.05;;
47455;SDS011;33202;48.512;-2.780;2023-05-10T08:54:55;12.40;;;2.17;;
47455;SDS011;33202;48.512;-2.780;2023-05-10T08:57:21;11.25;;;1.77;;
47455;SDS011;33202;48.512;-2.780;2023-05-10T08:59:48;9.50;;;1.80;;
47455;SDS011;33202;48.512;-2.780;2023-05-10T09:02:14;10.63;;;1.50;;
47455;SDS011;33202;48.512;-2.780;2023-05-10T09:04:40;8.85;;;1.77;;
47455;SDS011;33202;48.512;-2.780;2023-05-10T09:07:06;10.77;;;1.83;;
47455;SDS011;33202;48.512;-2.780;2023-05-10T09:09:33;8.32;;;1.80;;
47455;SDS011;33202;48.512;-2.780;2023-05-10T09:11:59;9.60;;;1.83;;
47455;SDS011;33202;48.512;-2.780;2023-05-10T09:14:25;11.00;;;2.03;;
47455;SDS011;33202;48.512;-2.780;2023-05-10T09:16:52;9.63;;;1.83;;
47455;SDS011;33202;48.512;-2.780;2023-05-10T09:19:19;8.95;;;1.67;;
47455;SDS011;33202;48.512;-2.780;2023-05-10T09:21:45;7.53;;;1.92;;
47455;SDS011;33202;48.512;-2.780;2023-05-10T09:24:11;6.50;;;1.77;;
47455;SDS011;33202;48.512;-2.780;2023-05-10T09:26:45;8.63;;;2.05;;
47455;SDS011;33202;48.512;-2.780;2023-05-10T09:29:12;10.43;;;2.17;;
47455;SDS011;33202;48.512;-2.780;2023-05-10T09:31:49;9.47;;;2.07;;
47455;SDS011;33202;48.512;-2.780;2023-05-10T09:34:17;6.50;;;1.63;;
47455;SDS011;33202;48.512;-2.780;2023-05-10T09:36:50;6.25;;;1.35;;
47455;SDS011;33202;48.512;-2.780;2023-05-10T09:39:16;7.28;;;1.33;;
47455;SDS011;33202;48.512;-2.780;2023-05-10T09:41:42;8.00;;;1.60;;
47455;SDS011;33202;48.512;-2.780;2023-05-10T09:44:08;9.90;;;2.00;;
47455;SDS011;33202;48.512;-2.780;2023-05-10T09:46:35;9.85;;;1.92;;
47455;SDS011;33202;48.512;-2.780;2023-05-10T09:49:01;10.52;;;1.45;;
47455;SDS011;33202;48.512;-2.780;2023-05-10T09:51:27;9.25;;;1.33;;
47455;SDS011;33202;48.512;-2.780;2023-05-10T09:54:13;7.63;;;1.20;;
47455;SDS011;33202;48.512;-2.780;2023-05-10T09:56:39;6.40;;;1.50;;
47455;SDS011;33202;48.512;-2.780;2023-05-10T09:59:07;8.82;;;1.38;;
47455;SDS011;33202;48.512;-2.780;2023-05-10T10:01:33;6.72;;;1.80;;
47455;SDS011;33202;48.512;-2.780;2023-05-10T10:04:02;10.32;;;1.45;;
47455;SDS011;33202;48.512;-2.780;2023-05-10T10:06:28;9.98;;;1.95;;
47455;SDS011;33202;48.512;-2.780;2023-05-10T10:08:55;10.95;;;1.70;;
47455;SDS011;33202;48.512;-2.780;2023-05-10T10:11:21;9.70;;;2.08;;
47455;SDS011;33202;48.512;-2.780;2023-05-10T10:13:47;9.93;;;1.40;;
47455;SDS011;33202;48.512;-2.780;2023-05-10T10:16:13;9.65;;;1.83;;
47455;SDS011;33202;48.512;-2.780;2023-05-10T10:18:39;9.45;;;1.88;;
47455;SDS011;33202;48.512;-2.780;2023-05-10T10:21:06;11.13;;;1.92;;
47455;SDS011;33202;48.512;-2.780;2023-05-10T10:23:36;7.65;;;1.58;;
47455;SDS011;33202;48.512;-2.780;2023-05-10T10:26:02;10.95;;;1.95;;
47455;SDS011;33202;48.512;-2.780;2023-05-10T10:28:35;9.20;;;1.90;;
47455;SDS011;33202;48.512;-2.780;2023-05-10T10:36:15;7.45;;;2.05;;
47455;SDS011;33202;48.512;-2.780;2023-05-10T10:41:09;11.05;;;2.58;;
47455;SDS011;33202;48.512;-2.780;2023-05-10T10:43:36;8.15;;;1.73;;
47455;SDS011;33202;48.512;-2.780;2023-05-10T10:46:09;4.82;;;1.35;;
47455;SDS011;33202;48.512;-2.780;2023-05-10T10:48:36;6.65;;;1.55;;
47455;SDS011;33202;48.512;-2.780;2023-05-10T10:51:02;8.52;;;2.03;;
47455;SDS011;33202;48.512;-2.780;2023-05-10T10:53:28;9.43;;;1.67;;
47455;SDS011;33202;48.512;-2.780;2023-05-10T10:56:07;7.88;;;1.58;;
47455;SDS011;33202;48.512;-2.780;2023-05-10T10:58:34;8.25;;;2.03;;
47455;SDS011;33202;48.512;-2.780;2023-05-10T11:01:18;8.65;;;2.20;;
47455;SDS011;33202;48.512;-2.780;2023-05-10T11:06:28;8.07;;;2.03;;
47455;SDS011;33202;48.512;-2.780;2023-05-10T11:08:56;4.15;;;1.42;;
47455;SDS011;33202;48.512;-2.780;2023-05-10T11:11:22;5.68;;;1.55;;
47455;SDS011;33202;48.512;-2.780;2023-05-10T11:13:49;9.75;;;2.25;;
47455;SDS011;33202;48.512;-2.780;2023-05-10T11:16:21;6.45;;;1.33;;
47455;SDS011;33202;48.512;-2.780;2023-05-10T11:19:04;7.47;;;1.42;;
47455;SDS011;33202;48.512;-2.780;2023-05-10T11:21:31;8.10;;;1.23;;
47455;SDS011;33202;48.512;-2.780;2023-05-10T11:23:58;4.72;;;1.08;;
47455;SDS011;33202;48.512;-2.780;2023-05-10T11:26:24;9.88;;;1.45;;
47455;SDS011;33202;48.512;-2.780;2023-05-10T11:28:51;4.28;;;0.60;;
47455;SDS011;33202;48.512;-2.780;2023-05-10T11:31:18;4.10;;;0.60;;
47455;SDS011;33202;48.512;-2.780;2023-05-10T11:33:51;3.20;;;0.85;;
47455;SDS011;33202;48.512;-2.780;2023-05-10T11:36:18;3.50;;;0.77;;
47455;SDS011;33202;48.512;-2.780;2023-05-10T11:41:11;7.18;;;1.35;;
47455;SDS011;33202;48.512;-2.780;2023-05-10T11:43:40;3.77;;;0.90;;
47455;SDS011;33202;48.512;-2.780;2023-05-10T11:46:13;7.55;;;1.02;;
47455;SDS011;33202;48.512;-2.780;2023-05-10T11:48:39;5.32;;;1.10;;
47455;SDS011;33202;48.512;-2.780;2023-05-10T11:51:06;9.15;;;1.45;;
47455;SDS011;33202;48.512;-2.780;2023-05-10T11:53:32;5.53;;;1.05;;
47455;SDS011;33202;48.512;-2.780;2023-05-10T11:56:05;7.93;;;1.88;;
47455;SDS011;33202;48.512;-2.780;2023-05-10T11:58:31;9.18;;;2.08;;
47455;SDS011;33202;48.512;-2.780;2023-05-10T12:00:58;7.43;;;1.48;;
47455;SDS011;33202;48.512;-2.780;2023-05-10T12:05:50;10.63;;;2.28;;
47455;SDS011;33202;48.512;-2.780;2023-05-10T12:08:19;8.80;;;1.83;;
47455;SDS011;33202;48.512;-2.780;2023-05-10T12:10:46;7.80;;;1.40;;
47455;SDS011;33202;48.512;-2.780;2023-05-10T12:13:12;8.90;;;1.77;;
47455;SDS011;33202;48.512;-2.780;2023-05-10T12:15:39;7.10;;;1.45;;
47455;SDS011;33202;48.512;-2.780;2023-05-10T12:18:05;9.63;;;1.75;;
47455;SDS011;33202;48.512;-2.780;2023-05-10T12:20:31;8.93;;;1.30;;
47455;SDS011;33202;48.512;-2.780;2023-05-10T12:22:57;9.45;;;1.70;;
47455;SDS011;33202;48.512;-2.780;2023-05-10T12:25:30;9.93;;;1.55;;
47455;SDS011;33202;48.512;-2.780;2023-05-10T12:27:57;8.15;;;1.45;;
47455;SDS011;33202;48.512;-2.780;2023-05-10T12:30:26;9.40;;;2.25;;
47455;SDS011;33202;48.512;-2.780;2023-05-10T12:32:52;10.48;;;2.38;;
47455;SDS011;33202;48.512;-2.780;2023-05-10T12:35:19;11.20;;;2.20;;
47455;SDS011;33202;48.512;-2.780;2023-05-10T12:37:49;8.43;;;1.70;;
47455;SDS011;33202;48.512;-2.780;2023-05-10T12:40:16;12.60;;;2.55;;
47455;SDS011;33202;48.512;-2.780;2023-05-10T12:42:42;9.02;;;1.55;;
47455;SDS011;33202;48.512;-2.780;2023-05-10T12:45:10;12.63;;;2.03;;
47455;SDS011;33202;48.512;-2.780;2023-05-10T12:47:36;6.20;;;1.43;;
47455;SDS011;33202;48.512;-2.780;2023-05-10T12:50:03;8.60;;;1.27;;
47455;SDS011;33202;48.512;-2.780;2023-05-10T12:52:30;7.13;;;1.30;;
47455;SDS011;33202;48.512;-2.780;2023-05-10T12:54:57;8.25;;;1.30;;
47455;SDS011;33202;48.512;-2.780;2023-05-10T12:57:23;9.75;;;3.55;;
47455;SDS011;33202;48.512;-2.780;2023-05-10T12:59:49;6.90;;;1.25;;
47455;SDS011;33202;48.512;-2.780;2023-05-10T13:02:15;10.38;;;1.70;;
47455;SDS011;33202;48.512;-2.780;2023-05-10T13:04:46;9.35;;;1.95;;
47455;SDS011;33202;48.512;-2.780;2023-05-10T13:07:12;5.95;;;1.63;;
47455;SDS011;33202;48.512;-2.780;2023-05-10T13:09:38;6.28;;;1.70;;
47455;SDS011;33202;48.512;-2.780;2023-05-10T13:12:05;7.90;;;1.67;;
47455;SDS011;33202;48.512;-2.780;2023-05-10T13:14:31;7.93;;;1.45;;
47455;SDS011;33202;48.512;-2.780;2023-05-10T13:16:57;7.50;;;1.27;;
47455;SDS011;33202;48.512;-2.780;2023-05-10T13:19:23;8.70;;;1.58;;
47455;SDS011;33202;48.512;-2.780;2023-05-10T13:21:49;10.27;;;1.92;;
47455;SDS011;33202;48.512;-2.780;2023-05-10T13:24:15;10.77;;;1.55;;
47455;SDS011;33202;48.512;-2.780;2023-05-10T13:26:42;5.97;;;1.23;;
47455;SDS011;33202;48.512;-2.780;2023-05-10T13:29:08;10.13;;;1.55;;
47455;SDS011;33202;48.512;-2.780;2023-05-10T13:31:34;7.18;;;1.02;;
47455;SDS011;33202;48.512;-2.780;2023-05-10T13:34:01;7.07;;;1.40;;
47455;SDS011;33202;48.512;-2.780;2023-05-10T13:36:27;8.02;;;1.77;;
47455;SDS011;33202;48.512;-2.780;2023-05-10T13:38:53;7.88;;;1.48;;
47455;SDS011;33202;48.512;-2.780;2023-05-10T13:41:19;7.32;;;1.77;;
47455;SDS011;33202;48.512;-2.780;2023-05-10T13:43:45;5.65;;;1.15;;
47455;SDS011;33202;48.512;-2.780;2023-05-10T13:46:13;7.72;;;1.30;;
47455;SDS011;33202;48.512;-2.780;2023-05-10T13:48:39;6.57;;;1.00;;
47455;SDS011;33202;48.512;-2.780;2023-05-10T13:51:05;5.38;;;1.20;;
47455;SDS011;33202;48.512;-2.780;2023-05-10T13:53:31;5.82;;;1.50;;
47455;SDS011;33202;48.512;-2.780;2023-05-10T13:55:58;6.50;;;1.15;;
47455;SDS011;33202;48.512;-2.780;2023-05-10T13:58:24;4.47;;;0.93;;
47455;SDS011;33202;48.512;-2.780;2023-05-10T14:00:50;5.45;;;1.13;;
47455;SDS011;33202;48.512;-2.780;2023-05-10T14:03:16;7.97;;;1.27;;
47455;SDS011;33202;48.512;-2.780;2023-05-10T14:05:42;4.72;;;1.50;;
47455;SDS011;33202;48.512;-2.780;2023-05-10T14:08:09;4.22;;;1.52;;
47455;SDS011;33202;48.512;-2.780;2023-05-10T14:10:38;6.75;;;1.98;;
47455;SDS011;33202;48.512;-2.780;2023-05-10T14:13:04;6.70;;;1.30;;
47455;SDS011;33202;48.512;-2.780;2023-05-10T14:15:31;6.85;;;1.00;;
47455;SDS011;33202;48.512;-2.780;2023-05-10T14:17:57;6.78;;;1.27;;
47455;SDS011;33202;48.512;-2.780;2023-05-10T14:20:23;8.93;;;1.83;;
47455;SDS011;33202;48.512;-2.780;2023-05-10T14:22:49;7.43;;;1.20;;
47455;SDS011;33202;48.512;-2.780;2023-05-10T14:25:15;4.88;;;0.98;;
47455;SDS011;33202;48.512;-2.780;2023-05-10T14:27:41;6.35;;;1.10;;
47455;SDS011;33202;48.512;-2.780;2023-05-10T14:30:07;5.60;;;1.08;;
47455;SDS011;33202;48.512;-2.780;2023-05-10T14:32:33;5.53;;;1.25;;
47455;SDS011;33202;48.512;-2.780;2023-05-10T14:35:01;4.03;;;0.90;;
47455;SDS011;33202;48.512;-2.780;2023-05-10T14:37:27;6.85;;;0.95;;
47455;SDS011;33202;48.512;-2.780;2023-05-10T14:39:53;4.80;;;1.35;;
47455;SDS011;33202;48.512;-2.780;2023-05-10T14:42:19;2.80;;;0.68;;
47455;SDS011;33202;48.512;-2.780;2023-05-10T14:44:46;4.50;;;0.95;;
47455;SDS011;33202;48.512;-2.780;2023-05-10T14:47:12;5.47;;;0.75;;
47455;SDS011;33202;48.512;-2.780;2023-05-10T14:49:38;3.67;;;0.70;;
47455;SDS011;33202;48.512;-2.780;2023-05-10T14:52:04;8.60;;;1.55;;
47455;SDS011;33202;48.512;-2.780;2023-05-10T14:54:30;7.75;;;1.15;;
47455;SDS011;33202;48.512;-2.780;2023-05-10T14:56:58;5.65;;;0.70;;
47455;SDS011;33202;48.512;-2.780;2023-05-10T14:59:25;4.95;;;1.00;;